Time;durP1;ratioP1;P1;durP2;ratioP2;P2;SDS_P1;SDS_P2;PMS_P1;PMS_P2;Temp;Humidity;BMP_temperature;BMP_pressure;BME280_temperature;BME280_humidity;BME280_pressure;Samples;Min_cycle;Max_cycle;Signal;HPM_P1;HPM_P2
2021/12/08 00:01:12;;;;;;;15.90;14.03;;;;;;;2.85;67.50;100850.63;5002198;28;20050;-84
2021/12/08 00:03:39;;;;;;;19.30;14.87;;;;;;;2.42;67.25;100789.97;5001819;28;20145;-85
2021/12/08 00:06:08;;;;;;;16.20;14.00;;;;;;;2.69;67.38;100837.47;5002043;28;20054;-85
2021/12/08 00:08:36;;;;;;;18.97;13.53;;;;;;;2.70;67.57;100844.44;5002033;28;20050;-85
2021/12/08 00:13:02;;;;;;;17.97;13.57;;;;;;;2.72;67.87;100835.56;5001658;28;20046;-85
2021/12/08 00:14:00;;;;;;;15.17;12.20;;;;;;;2.39;68.46;100766.53;4982049;28;20141;-84
2021/12/08 00:16:26;;;;;;;17.27;14.13;;;;;;;2.65;67.79;100822.84;4986093;28;20050;-84
2021/12/08 00:18:57;;;;;;;19.17;13.53;;;;;;;1.33;68.01;100620.09;4987250;28;20050;-85
2021/12/08 00:21:27;;;;;;;15.43;13.07;;;;;;;2.46;68.22;100802.81;4985650;28;20088;-84
2021/12/08 00:23:53;;;;;;;19.13;14.00;;;;;;;1.54;68.71;100644.34;4985681;28;20080;-82
2021/12/08 00:26:20;;;;;;;14.77;13.17;;;;;;;2.40;68.94;100776.09;4985438;28;20051;-84
2021/12/08 00:28:47;;;;;;;15.43;12.20;;;;;;;0.71;68.65;100499.47;4986900;28;20544;-86
2021/12/08 00:31:17;;;;;;;15.17;13.07;;;;;;;2.28;68.50;100757.47;4985787;28;20108;-82
2021/12/08 00:33:46;;;;;;;15.60;13.03;;;;;;;2.19;68.96;100744.84;4985692;28;20058;-83
2021/12/08 00:36:15;;;;;;;15.40;12.97;;;;;;;2.18;69.53;100740.53;4985455;28;20058;-84
2021/12/08 00:38:42;;;;;;;16.73;13.33;;;;;;;2.48;70.12;100797.53;4985551;28;20057;-84
2021/12/08 00:41:09;;;;;;;18.43;14.00;;;;;;;2.41;69.74;100788.28;4986679;28;20054;-86
2021/12/08 00:43:35;;;;;;;18.63;14.47;;;;;;;2.56;70.08;100808.44;4986890;28;20081;-84
2021/12/08 00:46:03;;;;;;;16.43;12.97;;;;;;;2.54;69.81;100794.56;4985413;28;20467;-84
2021/12/08 00:48:30;;;;;;;15.90;12.37;;;;;;;2.61;69.35;100808.19;4985416;28;20471;-84
2021/12/08 00:50:58;;;;;;;15.80;13.83;;;;;;;2.55;69.07;100802.34;4986111;28;20046;-81
2021/12/08 00:53:24;;;;;;;20.70;14.07;;;;;;;2.41;68.34;100755.06;4990068;28;20050;-83
2021/12/08 00:55:51;;;;;;;17.50;14.17;;;;;;;2.20;68.03;100741.28;4989912;28;20054;-83
2021/12/08 00:58:18;;;;;;;20.13;14.83;;;;;;;2.41;68.03;100780.41;4988675;28;20073;-83
2021/12/08 01:00:49;;;;;;;19.07;15.50;;;;;;;2.53;68.11;100798.13;4988489;28;20141;-84
2021/12/08 01:03:17;;;;;;;21.40;16.13;;;;;;;1.12;68.62;100575.81;4988239;28;20427;-84
2021/12/08 01:05:51;;;;;;;19.90;15.43;;;;;;;2.16;69.18;100741.53;4989302;28;20061;-84
2021/12/08 01:08:19;;;;;;;18.03;14.17;;;;;;;2.05;69.16;100729.00;4988691;28;20112;-85
2021/12/08 01:10:49;;;;;;;19.63;15.00;;;;;;;2.45;69.02;100777.56;4989074;28;20148;-83
2021/12/08 01:13:16;;;;;;;16.23;13.60;;;;;;;1.95;68.43;100683.28;4989633;28;20061;-83
2021/12/08 01:15:47;;;;;;;16.87;14.63;;;;;;;2.49;69.66;100788.72;4988742;28;20054;-84
2021/12/08 01:18:15;;;;;;;16.00;14.27;;;;;;;2.27;69.43;100754.94;4989785;28;20133;-84
2021/12/08 01:20:43;;;;;;;17.20;14.60;;;;;;;1.92;69.74;100689.50;4988444;28;20496;-84
2021/12/08 01:23:11;;;;;;;19.47;15.17;;;;;;;1.99;69.52;100697.88;4988164;28;20498;-84
2021/12/08 01:25:38;;;;;;;17.93;14.63;;;;;;;2.34;69.57;100757.16;4989463;28;20042;-84
2021/12/08 01:28:05;;;;;;;17.57;14.97;;;;;;;2.45;69.35;100763.59;4988212;28;20129;-83
2021/12/08 01:30:32;;;;;;;20.73;15.97;;;;;;;2.37;69.49;100760.53;4989467;28;20047;-81
2021/12/08 01:32:59;;;;;;;19.53;16.37;;;;;;;2.40;69.57;100766.44;4988332;28;20148;-83
2021/12/08 01:35:26;;;;;;;18.30;15.47;;;;;;;2.40;69.34;100763.81;4988083;28;20058;-84
2021/12/08 01:37:53;;;;;;;19.20;15.47;;;;;;;2.39;69.96;100756.06;5004942;28;20105;-83
2021/12/08 01:40:21;;;;;;;18.10;15.43;;;;;;;2.14;70.31;100699.72;4989225;28;20042;-84
2021/12/08 01:42:51;;;;;;;18.97;15.63;;;;;;;2.57;70.91;100736.72;4988996;28;20569;-84
2021/12/08 01:48:09;;;;;;;18.97;16.80;;;;;;;2.69;70.51;100730.00;4989448;28;20128;-84
2021/12/08 01:50:37;;;;;;;19.20;17.13;;;;;;;2.41;70.34;100701.81;5004708;28;20136;-83
2021/12/08 01:53:06;;;;;;;21.27;18.00;;;;;;;2.63;70.29;100741.66;4987325;28;20109;-85
2021/12/08 01:55:33;;;;;;;20.70;17.57;;;;;;;2.64;69.89;100730.22;5004384;28;20078;-84
2021/12/08 01:58:00;;;;;;;20.40;17.93;;;;;;;1.61;70.46;100536.66;5004791;28;20066;-84
2021/12/08 02:00:35;;;;;;;20.73;16.80;;;;;;;1.73;69.47;100544.81;4989181;28;20136;-85
2021/12/08 02:03:03;;;;;;;19.87;16.80;;;;;;;2.78;69.49;100713.75;4986272;28;20108;-86
2021/12/08 02:05:30;;;;;;;21.67;16.43;;;;;;;2.63;69.26;100676.13;5004186;28;20105;-83
2021/12/08 02:07:57;;;;;;;19.27;16.97;;;;;;;2.63;69.37;100688.41;4987808;28;20316;-84
2021/12/08 02:10:24;;;;;;;19.37;17.27;;;;;;;2.51;68.96;100653.22;4987706;28;20050;-85
2021/12/08 02:12:51;;;;;;;21.33;15.60;;;;;;;2.62;69.12;100677.06;5004046;28;20049;-83
2021/12/08 02:15:20;;;;;;;22.40;16.40;;;;;;;1.80;69.94;100549.63;5003989;28;20057;-85
2021/12/08 02:17:52;;;;;;;25.07;17.60;;;;;;;2.68;69.40;100702.94;4989142;28;20300;-84
2021/12/08 02:20:21;;;;;;;18.15;14.45;;;;;;;2.71;67.67;100688.81;5003517;28;20148;-83
2021/12/08 02:22:48;;;;;;;18.73;14.20;;;;;;;2.61;67.88;100661.41;5003706;28;20046;-84
2021/12/08 02:25:18;;;;;;;19.93;16.80;;;;;;;2.41;67.76;100624.03;5003457;28;20488;-84
2021/12/08 02:27:45;;;;;;;22.20;17.70;;;;;;;2.67;68.48;100684.66;4987694;28;20130;-84
2021/12/08 02:49:11;;;;;;;12.73;10.53;;;;;;;2.74;66.33;100650.19;4987820;28;20547;-85
2021/12/08 02:51:38;;;;;;;12.57;11.20;;;;;;;2.53;66.22;100585.84;4986773;28;20564;-84
2021/12/08 02:54:06;;;;;;;15.23;11.70;;;;;;;2.66;65.77;100605.19;4987304;28;20105;-84
2021/12/08 02:56:32;;;;;;;13.23;11.70;;;;;;;1.86;66.22;100478.59;4988046;28;20157;-83
2021/12/08 02:59:00;;;;;;;12.80;11.10;;;;;;;2.34;66.11;100547.53;4986483;28;20090;-86
2021/12/08 03:01:27;;;;;;;13.67;11.40;;;;;;;1.46;65.99;100414.53;4986477;28;20050;-85
2021/12/08 03:03:54;;;;;;;15.93;12.27;;;;;;;1.99;66.71;100493.63;4987977;28;20212;-83
2021/12/08 03:06:21;;;;;;;14.43;11.67;;;;;;;2.28;66.09;100540.03;4986663;28;20093;-83
2021/12/08 03:08:49;;;;;;;15.43;11.73;;;;;;;2.11;66.84;100516.53;4986773;28;20105;-82
2021/12/08 03:11:16;;;;;;;15.77;13.30;;;;;;;0.85;67.77;100316.69;4986916;28;20125;-84
2021/12/08 03:13:56;;;;;;;14.77;13.27;;;;;;;2.68;68.10;100613.81;4987337;28;20342;-84
2021/12/08 03:16:23;;;;;;;19.20;13.53;;;;;;;2.48;68.03;100593.13;4986650;28;20101;-85
2021/12/08 03:18:50;;;;;;;15.17;13.50;;;;;;;2.46;68.11;100587.94;4987870;28;20052;-84
2021/12/08 03:21:17;;;;;;;16.13;13.33;;;;;;;2.75;68.10;100604.66;4986717;28;20130;-83
2021/12/08 03:24:06;;;;;;;12.93;11.63;;;;;;;2.59;67.50;100585.47;4986671;28;20050;-84
2021/12/08 03:26:33;;;;;;;12.23;10.20;;;;;;;2.63;65.86;100589.63;4987780;28;20148;-84
2021/12/08 03:29:05;;;;;;;13.73;11.00;;;;;;;2.56;66.96;100572.56;4986132;28;20120;-84
2021/12/08 03:31:40;;;;;;;15.33;11.03;;;;;;;2.11;66.54;100503.44;5002146;28;20212;-83
2021/12/08 03:34:07;;;;;;;13.23;10.60;;;;;;;2.54;66.32;100582.28;4987800;28;20134;-83
2021/12/08 03:36:33;;;;;;;11.67;10.47;;;;;;;1.95;65.74;100477.28;4989615;28;20085;-84
2021/12/08 03:39:01;;;;;;;11.70;10.10;;;;;;;2.56;65.71;100586.50;4994652;28;20050;-82
2021/12/08 03:41:32;;;;;;;12.33;10.10;;;;;;;2.55;66.19;100590.06;4994808;28;20038;-84
2021/12/08 03:44:00;;;;;;;15.63;11.23;;;;;;;2.61;66.47;100601.97;4989403;28;20520;-83
2021/12/08 03:46:28;;;;;;;11.43;10.33;;;;;;;2.09;66.91;100510.56;4989177;28;20050;-85
2021/12/08 03:48:55;;;;;;;16.17;10.87;;;;;;;2.52;67.20;100581.50;5002005;28;20536;-85
2021/12/08 03:51:21;;;;;;;16.80;13.00;;;;;;;2.52;67.63;100592.00;4986171;28;20566;-83
2021/12/08 03:53:48;;;;;;;17.37;12.50;;;;;;;2.01;67.71;100515.34;4989211;28;20049;-84
2021/12/08 03:56:15;;;;;;;17.10;13.23;;;;;;;1.36;68.35;100410.69;4996509;28;20046;-86
2021/12/08 03:58:42;;;;;;;18.43;15.10;;;;;;;1.86;68.68;100499.53;4998457;28;20116;-84
2021/12/08 04:01:09;;;;;;;16.00;14.27;;;;;;;1.25;68.64;100378.13;4996495;28;20073;-84
2021/12/08 04:03:36;;;;;;;18.67;14.17;;;;;;;1.12;68.95;100344.84;4987323;28;20057;-85
2021/12/08 04:06:14;;;;;;;16.60;14.80;;;;;;;2.22;68.40;100519.41;4986927;28;20057;-83
2021/12/08 04:08:45;;;;;;;14.70;11.57;;;;;;;2.06;68.26;100484.53;4987279;28;20634;-84
2021/12/08 04:11:13;;;;;;;18.50;12.00;;;;;;;2.63;68.50;100584.38;5001769;28;20466;-83
2021/12/08 04:13:59;;;;;;;14.83;11.80;;;;;;;2.55;67.58;100542.88;5002314;28;20464;-83
2021/12/08 04:16:33;;;;;;;13.13;11.23;;;;;;;2.68;67.75;100561.38;4987156;28;20050;-84
2021/12/08 04:19:01;;;;;;;12.67;11.37;;;;;;;2.68;67.59;100565.78;4985896;28;20093;-84
2021/12/08 04:21:29;;;;;;;13.03;11.67;;;;;;;2.42;67.69;100517.47;5001691;28;20054;-83
2021/12/08 04:23:56;;;;;;;15.27;11.50;;;;;;;2.72;67.57;100562.91;4985607;28;20077;-83
2021/12/08 04:26:57;;;;;;;11.30;10.07;;;;;;;1.95;68.02;100424.06;4986693;28;20389;-83
2021/12/08 04:29:32;;;;;;;14.00;11.57;;;;;;;2.32;68.10;100494.38;4968175;28;20046;-84
2021/12/08 04:31:59;;;;;;;12.17;10.87;;;;;;;2.78;67.15;100553.84;4989750;28;20058;-85
2021/12/08 04:34:33;;;;;;;14.07;11.30;;;;;;;1.98;67.77;100418.66;4989502;28;20563;-82
2021/12/08 04:37:07;;;;;;;11.87;9.47;;;;;;;2.05;67.45;100430.47;4989439;28;20150;-84
2021/12/08 04:42:48;;;;;;;14.10;8.60;;;;;;;2.69;66.31;100534.22;4970990;28;20055;-83
2021/12/08 04:45:23;;;;;;;11.87;10.63;;;;;;;2.53;67.25;100518.53;4990027;28;20456;-86
2021/12/08 05:01:45;;;;;;;15.23;12.07;;;;;;;2.82;67.39;100528.31;4989626;28;20144;-84
2021/12/08 05:07:01;;;;;;;16.03;13.40;;;;;;;2.75;67.70;100518.16;4990088;28;20050;-82
2021/12/08 05:09:35;;;;;;;15.27;12.10;;;;;;;2.80;67.66;100538.03;4988975;28;20046;-84
2021/12/08 05:12:12;;;;;;;15.53;11.83;;;;;;;2.57;67.68;100506.09;5004911;28;20050;-84
2021/12/08 05:14:44;;;;;;;16.23;12.77;;;;;;;2.72;67.29;100520.97;4988612;28;20046;-84
2021/12/08 05:17:17;;;;;;;11.30;9.70;;;;;;;2.64;66.74;100512.69;4988685;28;20467;-84
2021/12/08 05:19:47;;;;;;;9.37;8.37;;;;;;;2.14;66.12;100446.50;4988651;28;20046;-84
2021/12/08 05:22:22;;;;;;;11.00;9.90;;;;;;;2.42;66.49;100486.00;4988861;28;20054;-83
2021/12/08 05:24:53;;;;;;;10.60;9.60;;;;;;;2.57;66.80;100511.34;4989946;28;20105;-84
2021/12/08 05:27:25;;;;;;;10.65;9.55;;;;;;;2.58;66.48;100518.28;4988838;28;20051;-85
2021/12/08 05:30:01;;;;;;;11.93;10.75;;;;;;;2.23;67.54;100447.75;4988197;28;20055;-85
2021/12/08 05:32:29;;;;;;;21.13;16.07;;;;;;;2.25;68.43;100432.78;4988650;28;20050;-83
2021/12/08 05:34:56;;;;;;;20.10;16.50;;;;;;;1.95;69.23;100361.22;4988006;28;20098;-83
2021/12/08 05:37:24;;;;;;;19.83;17.73;;;;;;;2.49;69.83;100464.59;4988385;28;20093;-83
2021/12/08 05:39:53;;;;;;;21.43;18.03;;;;;;;2.21;69.81;100399.88;4988127;28;20055;-84
2021/12/08 05:42:33;;;;;;;22.40;18.63;;;;;;;2.82;69.64;100504.72;4987735;28;20426;-83
2021/12/08 05:45:00;;;;;;;22.13;18.40;;;;;;;2.29;69.57;100425.63;4989329;28;20145;-84
2021/12/08 05:47:30;;;;;;;24.20;19.57;;;;;;;2.32;69.09;100417.56;4989229;28;20054;-84
2021/12/08 05:49:57;;;;;;;23.27;19.03;;;;;;;2.47;69.24;100442.88;4988104;28;20144;-83
2021/12/08 05:52:27;;;;;;;24.27;19.13;;;;;;;2.59;68.47;100461.47;4988225;28;20475;-84
2021/12/08 05:54:58;;;;;;;22.03;18.43;;;;;;;0.91;67.78;100201.34;4992101;28;20141;-82
2021/12/08 05:57:40;;;;;;;20.43;18.13;;;;;;;2.75;68.52;100489.31;4991905;28;20050;-85
2021/12/08 06:00:33;;;;;;;20.10;17.55;;;;;;;2.42;67.62;100423.13;4990886;28;20323;-84
2021/12/08 06:03:04;;;;;;;22.07;17.00;;;;;;;2.82;68.96;100483.72;4988174;28;20090;-83
2021/12/08 06:05:31;;;;;;;19.47;16.37;;;;;;;2.71;68.06;100460.75;4989353;28;20104;-85
2021/12/08 06:07:59;;;;;;;23.00;18.87;;;;;;;2.70;68.67;100448.59;4987851;28;20078;-84
2021/12/08 06:10:33;;;;;;;19.30;17.13;;;;;;;2.62;68.56;100435.06;4987406;28;20685;-85
2021/12/08 06:13:00;;;;;;;21.30;16.80;;;;;;;2.86;68.50;100477.34;4987512;28;20141;-84
2021/12/08 06:15:28;;;;;;;20.90;17.73;;;;;;;0.98;67.60;100176.53;4986876;28;20057;-83
2021/12/08 06:17:58;;;;;;;19.20;17.10;;;;;;;2.76;68.10;100477.88;4986759;28;20050;-85
2021/12/08 06:20:30;;;;;;;18.97;16.97;;;;;;;2.31;67.43;100398.41;4986135;28;20125;-84
2021/12/08 06:22:57;;;;;;;19.83;16.53;;;;;;;2.41;68.46;100421.47;4986447;28;20085;-84
2021/12/08 06:25:26;;;;;;;18.30;15.40;;;;;;;2.53;68.20;100449.56;4987847;28;20050;-84
2021/12/08 06:27:54;;;;;;;21.57;17.27;;;;;;;2.73;68.08;100478.06;5002658;28;20197;-85
2021/12/08 06:30:29;;;;;;;17.77;15.97;;;;;;;2.34;68.41;100406.06;4986282;28;20464;-87
2021/12/08 06:32:56;;;;;;;18.13;15.60;;;;;;;2.68;68.34;100448.66;5002610;28;20061;-83
2021/12/08 06:35:30;;;;;;;17.83;15.77;;;;;;;2.75;68.75;100450.00;4987486;28;20062;-83
2021/12/08 06:37:57;;;;;;;18.97;15.93;;;;;;;2.91;68.94;100467.44;4987600;28;20544;-84
2021/12/08 06:40:41;;;;;;;20.70;18.17;;;;;;;2.83;69.78;100438.22;4986206;28;20571;-83
2021/12/08 06:43:13;;;;;;;20.20;18.17;;;;;;;3.00;69.41;100440.66;4986451;28;20141;-83
2021/12/08 06:45:44;;;;;;;22.47;19.97;;;;;;;3.18;70.42;100450.06;5001895;28;20508;-82
2021/12/08 06:48:15;;;;;;;22.00;19.17;;;;;;;2.64;70.17;100360.66;5002440;28;20046;-84
2021/12/08 06:50:47;;;;;;;20.77;18.57;;;;;;;3.11;70.24;100416.44;4986740;28;20148;-83
2021/12/08 06:53:14;;;;;;;;;;;;;;;3.38;70.45;100440.13;4987730;28;20511;-85
2021/12/08 06:55:48;;;;;;;26.30;23.20;;;;;;;3.29;69.73;100425.78;5018392;28;19925;-83
2021/12/08 06:58:26;;;;;;;24.03;21.53;;;;;;;3.02;69.68;100380.28;5001775;28;20053;-84
2021/12/08 07:03:46;;;;;;;22.37;20.07;;;;;;;3.43;69.58;100406.56;4987396;28;20054;-83
2021/12/08 07:06:44;;;;;;;25.20;20.03;;;;;;;2.76;69.05;100269.94;4988176;28;20141;-83
2021/12/08 07:09:09;;;;;;;25.02;19.77;;;;;;;3.38;69.35;100378.00;4987627;28;20058;-84
2021/12/08 07:11:38;;;;;;;21.40;19.20;;;;;;;3.30;69.14;100369.78;4986554;28;20082;-84
2021/12/08 07:14:04;;;;;;;23.40;19.70;;;;;;;2.03;68.74;100178.34;4986509;28;20054;-82
2021/12/08 07:16:40;;;;;;;22.63;20.43;;;;;;;2.67;69.29;100276.63;4985339;28;20151;-83
2021/12/08 07:19:29;;;;;;;27.93;19.43;;;;;;;3.26;69.86;100383.16;4985522;28;20476;-83
2021/12/08 07:21:57;;;;;;;26.03;20.33;;;;;;;3.48;70.94;100412.38;4985586;28;20133;-83
2021/12/08 07:24:27;;;;;;;24.60;22.07;;;;;;;3.43;70.28;100403.94;4985574;28;20373;-83
2021/12/08 07:27:00;;;;;;;23.63;20.90;;;;;;;3.49;70.09;100410.59;4986037;28;20058;-83
2021/12/08 07:29:31;;;;;;;23.47;20.97;;;;;;;3.46;70.69;100405.53;5002777;28;20096;-82
2021/12/08 07:32:03;;;;;;;22.73;20.37;;;;;;;3.39;71.35;100379.66;5003183;28;20335;-83
2021/12/08 07:34:32;;;;;;;25.13;21.10;;;;;;;3.52;70.91;100405.13;4987175;28;20046;-83
2021/12/08 07:37:04;;;;;;;22.43;20.03;;;;;;;2.30;71.02;100200.22;4986270;28;20150;-83
2021/12/08 07:39:41;;;;;;;23.37;20.87;;;;;;;3.58;71.22;100396.91;4986841;28;20491;-83
2021/12/08 07:42:16;;;;;;;25.23;20.47;;;;;;;3.42;71.96;100332.25;5001590;28;20051;-85
2021/12/08 07:44:44;;;;;;;22.87;20.27;;;;;;;3.69;72.04;100377.81;5000810;28;20039;-84
2021/12/08 07:47:16;;;;;;;22.60;20.20;;;;;;;3.43;70.96;100296.34;4984595;28;20124;-84
2021/12/08 07:49:53;;;;;;;24.27;20.90;;;;;;;3.74;71.22;100339.84;4986001;28;20050;-83
2021/12/08 07:52:33;;;;;;;23.93;21.43;;;;;;;3.80;71.97;100373.56;4984889;28;20137;-86
2021/12/08 07:55:05;;;;;;;24.03;21.33;;;;;;;3.93;71.58;100378.91;5001068;28;20444;-85
2021/12/08 07:57:34;;;;;;;23.53;21.03;;;;;;;3.82;70.82;100366.44;4990921;28;20108;-84
2021/12/08 08:00:10;;;;;;;24.03;21.50;;;;;;;3.49;72.13;100316.09;4986255;28;20116;-85
2021/12/08 08:02:36;;;;;;;27.20;22.10;;;;;;;3.71;72.91;100342.66;4984837;28;20488;-84
2021/12/08 08:05:05;;;;;;;22.20;20.10;;;;;;;3.32;72.62;100283.91;4986969;28;20393;-84
2021/12/08 08:07:33;;;;;;;21.53;19.33;;;;;;;3.17;71.69;100249.00;4985047;28;20077;-84
2021/12/08 08:10:02;;;;;;;23.43;20.93;;;;;;;2.16;72.73;100090.25;4985619;28;20536;-87
2021/12/08 08:12:34;;;;;;;25.43;20.43;;;;;;;3.71;72.78;100345.28;4985395;28;20460;-84
2021/12/08 08:15:08;;;;;;;25.65;20.85;;;;;;;3.81;72.27;100320.13;4985289;28;20086;-83
2021/12/08 08:17:40;;;;;;;22.53;20.07;;;;;;;3.58;73.08;100299.78;4984537;28;20156;-82
2021/12/08 08:20:16;;;;;;;23.17;20.53;;;;;;;3.74;72.27;100334.59;4984173;28;20472;-84
2021/12/08 08:22:43;;;;;;;24.53;21.43;;;;;;;3.85;71.46;100357.53;4983904;28;20050;-85
2021/12/08 08:25:13;;;;;;;25.50;21.40;;;;;;;3.75;72.26;100344.16;4984182;28;20058;-82
2021/12/08 08:27:40;;;;;;;25.23;20.63;;;;;;;3.85;72.67;100349.66;5000140;28;20452;-82
2021/12/08 08:30:17;;;;;;;22.57;19.13;;;;;;;3.98;72.42;100340.03;4999043;28;20050;-83
2021/12/08 08:32:48;;;;;;;24.63;20.43;;;;;;;3.41;71.92;100230.84;4984581;28;20122;-82
2021/12/08 08:35:41;;;;;;;23.53;21.13;;;;;;;3.92;72.02;100306.28;4985106;28;20047;-75
2021/12/08 08:38:20;;;;;;;24.17;20.43;;;;;;;4.00;72.48;100285.59;4984650;28;20065;-83
2021/12/08 08:40:57;;;;;;;26.97;19.27;;;;;;;4.26;72.18;100297.00;4985437;28;20050;-82
2021/12/08 08:43:26;;;;;;;23.93;21.43;;;;;;;4.43;71.24;100287.97;4987695;28;20061;-83
2021/12/08 08:46:00;;;;;;;24.10;21.43;;;;;;;4.29;71.07;100273.13;4985202;28;20133;-81
2021/12/08 08:48:31;;;;;;;22.63;20.23;;;;;;;4.17;70.97;100249.47;4986302;28;20160;-82
2021/12/08 08:51:12;;;;;;;23.13;20.83;;;;;;;4.15;71.29;100248.75;4985254;28;20053;-83
2021/12/08 08:53:41;;;;;;;24.40;21.80;;;;;;;3.75;70.74;100191.88;4985415;28;20062;-83
2021/12/08 08:56:18;;;;;;;24.27;20.77;;;;;;;3.90;71.28;100197.88;4984333;28;20468;-81
2021/12/08 08:58:50;;;;;;;21.70;18.43;;;;;;;4.35;70.71;100263.19;4985175;28;20460;-82
2021/12/08 09:01:29;;;;;;;22.80;20.67;;;;;;;3.61;71.37;100156.03;4985692;28;20141;-81
2021/12/08 09:04:04;;;;;;;22.33;20.03;;;;;;;3.66;71.17;100171.47;4985295;28;20061;-82
2021/12/08 09:06:36;;;;;;;23.03;19.87;;;;;;;3.57;71.16;100130.13;4985176;28;20141;-82
2021/12/08 09:09:08;;;;;;;22.37;20.07;;;;;;;4.38;70.23;100248.03;4985256;28;20058;-84
2021/12/08 09:11:41;;;;;;;24.10;19.75;;;;;;;3.59;70.77;100123.81;4986460;28;20047;-81
2021/12/08 09:14:23;;;;;;;20.93;18.83;;;;;;;3.47;70.75;100093.16;4988666;28;20070;-83
2021/12/08 09:17:00;;;;;;;22.77;20.37;;;;;;;4.38;70.77;100245.38;4989643;28;20061;-84
2021/12/08 09:19:57;;;;;;;21.93;19.30;;;;;;;4.97;71.10;100239.53;4990336;28;20058;-84
2021/12/08 09:22:56;;;;;;;19.60;16.83;;;;;;;4.43;70.20;100109.22;4982663;28;20081;-84
2021/12/08 09:25:37;;;;;;;21.87;17.57;;;;;;;5.21;68.66;100217.66;4988759;28;20157;-85
2021/12/08 09:28:14;;;;;;;18.60;16.70;;;;;;;3.95;68.98;100011.94;4987564;28;20058;-85
2021/12/08 09:30:47;;;;;;;21.77;17.03;;;;;;;4.34;68.73;99973.22;4988115;28;20050;-83
2021/12/08 09:33:20;;;;;;;22.20;16.53;;;;;;;3.66;67.35;99892.38;4989934;28;20061;-85
2021/12/08 09:35:52;;;;;;;18.80;16.80;;;;;;;5.79;69.65;100185.22;4988027;28;20125;-82
2021/12/08 09:38:32;;;;;;;20.20;18.17;;;;;;;4.54;67.12;99991.97;4988349;28;20061;-85
2021/12/08 09:41:06;;;;;;;18.73;16.77;;;;;;;5.87;67.96;100149.56;4989577;28;20047;-85
2021/12/08 09:43:38;;;;;;;22.40;18.45;;;;;;;4.87;66.77;100023.66;4988285;28;20373;-83
2021/12/08 09:46:16;;;;;;;20.33;18.42;;;;;;;5.47;67.06;100142.88;4989130;28;20061;-83
2021/12/08 09:48:46;;;;;;;21.63;18.13;;;;;;;5.33;67.27;100140.44;5005790;28;20073;-84
2021/12/08 09:51:17;;;;;;;20.00;17.92;;;;;;;5.08;68.43;100091.44;5005240;28;20368;-85
2021/12/08 09:53:45;;;;;;;17.00;15.25;;;;;;;5.25;68.95;100059.41;5004838;28;20117;-83
2021/12/08 09:56:17;;;;;;;20.47;18.27;;;;;;;5.57;67.37;100091.19;5003474;28;20046;-82
2021/12/08 09:58:44;;;;;;;26.90;20.60;;;;;;;5.06;67.13;100036.28;4989327;28;20078;-83
2021/12/08 10:01:17;;;;;;;18.70;16.90;;;;;;;4.89;67.96;100060.38;4988877;28;20150;-83
2021/12/08 10:03:46;;;;;;;19.20;16.80;;;;;;;4.20;68.04;99960.25;5005279;28;20328;-82
2021/12/08 10:06:16;;;;;;;18.25;16.45;;;;;;;5.33;69.17;100075.47;5004430;28;20054;-83
2021/12/08 10:08:45;;;;;;;17.53;15.07;;;;;;;4.78;68.73;99961.25;5003814;28;20054;-82
2021/12/08 10:11:13;;;;;;;19.13;17.33;;;;;;;3.68;67.55;99780.25;5003436;28;20054;-82
2021/12/08 10:13:40;;;;;;;19.30;17.30;;;;;;;3.52;67.26;99785.75;5003503;28;20054;-83
2021/12/08 10:16:08;;;;;;;20.75;18.75;;;;;;;4.18;68.37;99949.88;4988672;28;20133;-82
2021/12/08 10:18:35;;;;;;;23.07;20.60;;;;;;;4.14;68.45;99929.19;5003837;28;20053;-84
2021/12/08 10:21:03;;;;;;;19.30;17.33;;;;;;;4.81;68.50;100013.59;4987797;28;20061;-83
2021/12/08 10:23:32;;;;;;;19.53;17.47;;;;;;;5.10;68.57;100029.00;4986587;28;20050;-82
2021/12/08 10:26:01;;;;;;;18.77;16.87;;;;;;;4.85;68.35;99957.16;4987015;28;20047;-83
2021/12/08 10:28:30;;;;;;;20.10;18.00;;;;;;;4.79;67.40;99973.44;4988896;28;20050;-84
2021/12/08 10:31:12;;;;;;;18.77;17.03;;;;;;;5.11;68.28;100017.50;4988744;28;20057;-83
2021/12/08 10:36:49;;;;;;;17.60;15.80;;;;;;;5.39;68.76;100008.38;4988075;28;20050;-83
2021/12/08 10:39:38;;;;;;;19.35;17.40;;;;;;;5.53;68.44;99999.38;4987378;28;20057;-82
2021/12/08 10:42:18;;;;;;;20.90;18.70;;;;;;;5.27;66.71;99986.47;4987261;28;20108;-83
2021/12/08 10:45:10;;;;;;;19.97;17.93;;;;;;;5.09;67.37;100006.25;4987175;28;20129;-84
2021/12/08 10:47:50;;;;;;;20.13;17.67;;;;;;;3.94;68.01;99817.72;4987112;28;20086;-81
2021/12/08 10:56:08;;;;;;;20.95;17.58;;;;;;;5.42;68.11;99934.41;4988398;28;20061;-83
2021/12/08 10:58:39;;;;;;;18.37;16.53;;;;;;;5.36;66.58;99937.50;4987176;28;20108;-84
2021/12/08 11:01:26;;;;;;;17.30;15.33;;;;;;;5.30;67.35;99856.41;4986178;28;20089;-84
2021/12/08 11:04:03;;;;;;;16.47;14.90;;;;;;;5.74;66.30;99907.34;4985638;28;20050;-83
2021/12/08 11:06:32;;;;;;;18.27;16.38;;;;;;;4.69;65.73;99705.09;4985719;28;20050;-84
2021/12/08 11:08:59;;;;;;;17.70;15.80;;;;;;;5.55;66.04;99828.97;4987026;28;20058;-84
2021/12/08 11:11:32;;;;;;;16.50;14.90;;;;;;;5.89;65.59;99889.47;4987024;28;20066;-82
2021/12/08 11:14:02;;;;;;;16.37;14.67;;;;;;;4.64;65.27;99745.84;4988067;28;20368;-83
2021/12/08 11:16:31;;;;;;;15.60;14.00;;;;;;;4.46;66.68;99683.22;4986313;28;20057;-81
2021/12/08 11:19:00;;;;;;;15.40;13.90;;;;;;;5.70;65.75;99858.50;4986175;28;20046;-82
2021/12/08 11:21:36;;;;;;;18.25;14.55;;;;;;;4.05;65.29;99600.59;4986520;28;20078;-82
2021/12/08 11:24:30;;;;;;;17.20;15.38;;;;;;;5.40;65.86;99851.25;4986636;28;20329;-83
2021/12/08 11:27:04;;;;;;;15.83;14.23;;;;;;;4.38;66.10;99725.03;4987601;28;20147;-85
2021/12/08 11:29:34;;;;;;;15.77;14.13;;;;;;;4.41;66.38;99690.63;4986492;28;20046;-84
2021/12/08 11:32:08;;;;;;;17.83;15.07;;;;;;;5.68;66.09;99829.69;4986032;28;20086;-82
2021/12/08 11:34:35;;;;;;;17.13;15.43;;;;;;;5.38;64.05;99816.31;4986443;28;20061;-84
2021/12/08 11:37:05;;;;;;;15.13;13.63;;;;;;;4.83;64.10;99722.41;4986013;28;20467;-84
2021/12/08 11:39:38;;;;;;;15.57;14.10;;;;;;;5.00;63.65;99749.16;4986015;28;20412;-84
2021/12/08 11:42:17;;;;;;;14.70;13.40;;;;;;;5.04;64.42;99840.03;4987271;28;20447;-83
2021/12/08 11:44:48;;;;;;;16.80;12.53;;;;;;;4.81;64.83;99820.78;4985958;28;20047;-85
2021/12/08 11:47:20;;;;;;;17.60;13.13;;;;;;;4.38;65.63;99743.44;4986128;28;20052;-83
2021/12/08 11:49:53;;;;;;;17.92;13.50;;;;;;;4.64;65.05;99827.34;4985997;28;20085;-84
2021/12/08 11:52:23;;;;;;;14.03;12.63;;;;;;;3.25;65.83;99602.34;4986143;28;20064;-84
2021/12/08 11:55:00;;;;;;;15.50;12.80;;;;;;;4.27;65.51;99767.91;4987614;28;20054;-82
2021/12/08 11:57:33;;;;;;;15.80;13.67;;;;;;;4.56;65.06;99803.41;4987592;28;20105;-83
2021/12/08 12:00:06;;;;;;;14.27;12.80;;;;;;;4.59;65.53;99779.53;4985787;28;20046;-82
2021/12/08 12:02:38;;;;;;;15.47;12.93;;;;;;;4.69;63.93;99783.97;4986104;28;20147;-83
2021/12/08 12:05:19;;;;;;;15.45;12.80;;;;;;;4.55;62.98;99746.56;4989699;28;20086;-82
2021/12/08 12:07:46;;;;;;;13.10;11.87;;;;;;;4.91;63.52;99801.53;4992716;28;20054;-83
2021/12/08 12:10:16;;;;;;;15.47;13.90;;;;;;;4.64;63.69;99753.72;4990665;28;20058;-86
2021/12/08 12:12:43;;;;;;;16.93;14.47;;;;;;;4.71;64.67;99723.38;4985119;28;20050;-83
2021/12/08 12:15:14;;;;;;;16.17;14.33;;;;;;;4.91;64.63;99762.09;4984000;28;20566;-84
2021/12/08 12:17:42;;;;;;;18.40;14.67;;;;;;;4.16;63.69;99668.06;4984797;28;20043;-83
2021/12/08 12:20:12;;;;;;;19.47;17.47;;;;;;;4.78;65.10;99742.13;4983974;28;20058;-85
2021/12/08 12:22:55;;;;;;;15.73;14.03;;;;;;;3.20;66.39;99529.25;4985865;28;20054;-84
2021/12/08 12:25:28;;;;;;;18.73;14.90;;;;;;;4.02;67.37;99661.22;4985063;28;20058;-83
2021/12/08 12:28:03;;;;;;;16.37;14.53;;;;;;;4.47;69.31;99757.66;4985625;28;20137;-85
2021/12/08 12:30:45;;;;;;;15.97;14.33;;;;;;;4.34;69.01;99741.16;4983721;28;20565;-83
2021/12/08 12:33:18;;;;;;;16.00;14.18;;;;;;;4.00;69.45;99662.28;4985021;28;20495;-83